Time,TemperatureF,DewpointF,PressureIn,WindDirection,WindDirectionDegrees,WindSpeedMPH,WindSpeedGustMPH,Humidity,HourlyPrecipIn,Conditions,Clouds,dailyrainin,SoftwareType,DateUTC
2013-08-27 00:01:00,62.6,61.7,30.19,SSW,213,0.0,0.0,97,0.00,,,0.01,Wunderground v.1.15,2013-08-27 04:01:00,
2013-08-27 00:02:00,62.6,61.7,30.19,SW,214,0.0,0.0,97,0.00,,,0.00,Wunderground v.1.15,2013-08-27 04:02:00,
2013-08-27 00:03:00,62.7,61.8,30.19,SW,214,0.0,0.0,97,0.00,,,0.00,Wunderground v.1.15,2013-08-27 04:03:00,
2013-08-27 00:05:00,62.8,61.9,30.19,SSW,213,0.0,0.0,97,0.00,,,0.00,Wunderground v.1.15,2013-08-27 04:05:00,
2013-08-27 00:06:00,62.9,62.0,30.19,SW,214,0.0,0.0,97,0.00,,,0.00,Wunderground v.1.15,2013-08-27 04:06:00,
2013-08-27 00:11:00,63.2,62.3,30.19,SW,214,0.0,0.0,97,0.00,,,0.00,Wunderground v.1.15,2013-08-27 04:11:00,
2013-08-27 00:17:00,63.3,62.4,30.19,SW,214,0.0,0.0,97,0.00,,,0.00,Wunderground v.1.15,2013-08-27 04:17:00,
2013-08-27 00:22:00,63.4,62.5,30.19,SW,214,0.0,0.0,97,0.00,,,0.00,Wunderground v.1.15,2013-08-27 04:22:00,
2013-08-27 00:27:00,63.4,62.5,30.19,SW,214,0.0,0.0,97,0.00,,,0.00,Wunderground v.1.15,2013-08-27 04:27:00,
2013-08-27 00:32:00,63.4,62.5,30.19,SW,214,0.0,0.0,97,0.00,,,0.00,Wunderground v.1.15,2013-08-27 04:32:00,
2013-08-27 00:37:00,63.5,62.6,30.19,SW,214,0.0,0.0,97,0.00,,,0.00,Wunderground v.1.15,2013-08-27 04:37:00,
2013-08-27 00:42:00,63.5,62.6,30.19,SSW,213,0.0,0.0,97,0.00,,,0.00,Wunderground v.1.15,2013-08-27 04:42:00,
2013-08-27 00:47:00,63.4,62.5,30.19,SW,214,0.0,0.0,97,0.00,,,0.00,Wunderground v.1.15,2013-08-27 04:47:00,
2013-08-27 00:52:00,63.3,62.4,30.19,SW,214,0.0,0.0,97,0.00,,,0.00,Wunderground v.1.15,2013-08-27 04:52:00,
2013-08-27 00:57:00,63.3,62.4,30.19,SW,214,0.0,0.0,97,0.00,,,0.00,Wunderground v.1.15,2013-08-27 04:57:00,
2013-08-27 01:02:00,63.1,62.2,30.18,SW,214,0.0,0.0,97,0.00,,,0.00,Wunderground v.1.15,2013-08-27 05:02:00,
2013-08-27 01:07:00,63.0,62.1,30.18,SW,214,0.0,0.0,97,0.00,,,0.00,Wunderground v.1.15,2013-08-27 05:07:00,
2013-08-27 01:13:00,62.8,61.9,30.19,SW,214,0.0,0.0,97,0.00,,,0.00,Wunderground v.1.15,2013-08-27 05:13:00,
2013-08-27 01:18:00,62.7,61.8,30.19,SW,214,0.0,0.0,97,0.00,,,0.00,Wunderground v.1.15,2013-08-27 05:18:00,
2013-08-27 01:23:00,62.7,61.8,30.18,SW,214,0.0,0.0,97,0.00,,,0.00,Wunderground v.1.15,2013-08-27 05:23:00,
2013-08-27 01:28:00,62.6,61.7,30.19,SW,214,0.0,0.0,97,0.00,,,0.00,Wunderground v.1.15,2013-08-27 05:28:00,
2013-08-27 01:33:00,62.4,61.5,30.18,SW,214,0.0,0.0,97,0.00,,,0.00,Wunderground v.1.15,2013-08-27 05:33:00,
2013-08-27 01:39:00,62.2,61.3,30.18,SW,214,0.0,0.0,97,0.00,,,0.00,Wunderground v.1.15,2013-08-27 05:39:00,
2013-08-27 01:44:00,62.0,61.1,30.18,SW,214,0.0,0.0,97,0.00,,,0.00,Wunderground v.1.15,2013-08-27 05:44:00,
2013-08-27 01:50:00,62.2,61.6,30.18,SW,214,0.0,0.0,98,0.00,,,0.00,Wunderground v.1.15,2013-08-27 05:50:00,
2013-08-27 01:55:00,62.1,61.5,30.17,SW,214,0.0,0.0,98,0.00,,,0.00,Wunderground v.1.15,2013-08-27 05:55:00,
2013-08-27 02:00:00,61.9,61.3,30.17,SW,214,0.0,0.0,98,0.00,,,0.00,Wunderground v.1.15,2013-08-27 06:00:00,
2013-08-27 02:05:00,61.7,61.1,30.18,SW,214,0.0,0.0,98,0.00,,,0.00,Wunderground v.1.15,2013-08-27 06:05:00,
2013-08-27 02:10:00,61.7,61.1,30.18,SW,214,0.0,0.0,98,0.00,,,0.00,Wunderground v.1.15,2013-08-27 06:10:00,
2013-08-27 02:15:00,61.8,61.2,30.17,SW,214,0.0,0.0,98,0.00,,,0.00,Wunderground v.1.15,2013-08-27 06:15:00,
2013-08-27 02:20:00,61.7,61.1,30.17,SW,214,0.0,0.0,98,0.00,,,0.00,Wunderground v.1.15,2013-08-27 06:20:00,
2013-08-27 02:26:00,61.6,61.0,30.17,SSW,213,0.0,0.0,98,0.00,,,0.00,Wunderground v.1.15,2013-08-27 06:26:00,
2013-08-27 02:31:00,61.7,61.1,30.17,SW,214,0.0,0.0,98,0.00,,,0.00,Wunderground v.1.15,2013-08-27 06:31:00,
2013-08-27 02:36:00,61.8,61.2,30.17,SW,214,0.0,0.0,98,0.00,,,0.00,Wunderground v.1.15,2013-08-27 06:36:00,
2013-08-27 02:41:00,61.6,61.0,30.17,SW,214,0.0,0.0,98,0.00,,,0.00,Wunderground v.1.15,2013-08-27 06:41:00,
2013-08-27 02:46:00,61.5,60.9,30.16,SW,214,0.0,0.0,98,0.00,,,0.00,Wunderground v.1.15,2013-08-27 06:46:00,
2013-08-27 02:52:00,61.6,61.0,30.16,SW,214,0.0,0.0,98,0.00,,,0.00,Wunderground v.1.15,2013-08-27 06:52:00,
2013-08-27 02:57:00,61.5,60.9,30.16,SW,214,0.0,0.0,98,0.00,,,0.00,Wunderground v.1.15,2013-08-27 06:57:00,
2013-08-27 03:02:00,61.3,60.7,30.16,SW,214,0.0,0.0,98,0.00,,,0.00,Wunderground v.1.15,2013-08-27 07:02:00,
2013-08-27 03:08:00,61.1,60.5,30.16,SSW,213,0.0,0.0,98,0.00,,,0.00,Wunderground v.1.15,2013-08-27 07:08:00,
2013-08-27 03:13:00,60.9,60.3,30.16,SW,214,0.0,0.0,98,0.00,,,0.00,Wunderground v.1.15,2013-08-27 07:13:00,
2013-08-27 03:18:00,60.7,60.1,30.16,SW,214,0.0,0.0,98,0.00,,,0.00,Wunderground v.1.15,2013-08-27 07:18:00,
2013-08-27 03:23:00,60.9,60.3,30.16,SW,214,0.0,0.0,98,0.00,,,0.00,Wunderground v.1.15,2013-08-27 07:23:00,
2013-08-27 03:28:00,60.7,60.1,30.16,SW,214,0.0,0.0,98,0.00,,,0.00,Wunderground v.1.15,2013-08-27 07:28:00,
2013-08-27 03:33:00,60.6,60.0,30.16,SW,214,0.0,0.0,98,0.00,,,0.00,Wunderground v.1.15,2013-08-27 07:33:00,
2013-08-27 03:38:00,60.7,60.1,30.16,SW,214,0.0,0.0,98,0.00,,,0.00,Wunderground v.1.15,2013-08-27 07:38:00,
2013-08-27 03:43:00,60.5,59.9,30.16,SW,214,0.0,0.0,98,0.00,,,0.00,Wunderground v.1.15,2013-08-27 07:43:00,
2013-08-27 03:48:00,60.4,59.8,30.16,SW,214,0.0,0.0,98,0.00,,,0.00,Wunderground v.1.15,2013-08-27 07:48:00,
2013-08-27 03:53:00,60.4,59.8,30.16,SW,214,0.0,0.0,98,0.00,,,0.00,Wunderground v.1.15,2013-08-27 07:53:00,
2013-08-27 03:59:00,60.3,59.7,30.15,SW,214,0.0,0.0,98,0.00,,,0.00,Wunderground v.1.15,2013-08-27 07:59:00,
2013-08-27 04:04:00,60.3,59.7,30.15,SSW,213,0.0,0.0,98,0.00,,,0.00,Wunderground v.1.15,2013-08-27 08:04:00,
2013-08-27 04:09:00,60.3,59.7,30.15,SW,214,0.0,0.0,98,0.00,,,0.00,Wunderground v.1.15,2013-08-27 08:09:00,
2013-08-27 04:14:00,60.1,59.5,30.15,SW,214,0.0,0.0,98,0.00,,,0.00,Wunderground v.1.15,2013-08-27 08:14:00,
2013-08-27 04:19:00,60.1,59.5,30.15,SSW,213,0.0,0.0,98,0.00,,,0.00,Wunderground v.1.15,2013-08-27 08:19:00,
2013-08-27 04:24:00,60.5,59.9,30.15,SW,214,0.0,0.0,98,0.00,,,0.00,Wunderground v.1.15,2013-08-27 08:24:00,
2013-08-27 04:29:00,60.5,59.9,30.15,SW,214,0.0,0.0,98,0.00,,,0.00,Wunderground v.1.15,2013-08-27 08:29:00,
2013-08-27 04:34:00,60.4,59.8,30.15,SW,214,0.0,0.0,98,0.00,,,0.00,Wunderground v.1.15,2013-08-27 08:34:00,
2013-08-27 04:39:00,60.3,59.7,30.15,SW,214,0.0,0.0,98,0.00,,,0.00,Wunderground v.1.15,2013-08-27 08:39:00,
2013-08-27 04:44:00,60.0,59.4,30.15,SW,214,0.0,0.0,98,0.00,,,0.00,Wunderground v.1.15,2013-08-27 08:44:00,
2013-08-27 04:50:00,59.8,59.2,30.15,SW,214,0.0,0.0,98,0.00,,,0.00,Wunderground v.1.15,2013-08-27 08:50:00,
2013-08-27 04:55:00,59.7,59.1,30.15,SW,214,0.0,0.0,98,0.00,,,0.00,Wunderground v.1.15,2013-08-27 08:55:00,
2013-08-27 05:00:00,59.7,59.1,30.15,SW,214,0.0,0.0,98,0.00,,,0.00,Wunderground v.1.15,2013-08-27 09:00:00,
2013-08-27 05:05:00,60.0,59.4,30.15,SW,214,0.0,0.0,98,0.00,,,0.00,Wunderground v.1.15,2013-08-27 09:05:00,
2013-08-27 05:10:00,59.8,59.2,30.15,SW,214,0.0,0.0,98,0.00,,,0.00,Wunderground v.1.15,2013-08-27 09:10:00,
2013-08-27 05:15:00,59.9,59.3,30.14,SW,214,0.0,0.0,98,0.00,,,0.00,Wunderground v.1.15,2013-08-27 09:15:00,
2013-08-27 05:20:00,60.3,59.7,30.14,SW,214,0.0,0.0,98,0.00,,,0.00,Wunderground v.1.15,2013-08-27 09:20:00,
2013-08-27 05:25:00,60.3,59.7,30.14,SW,214,0.0,0.0,98,0.00,,,0.00,Wunderground v.1.15,2013-08-27 09:25:00,
2013-08-27 05:30:00,60.1,59.5,30.14,SSW,213,0.0,0.0,98,0.00,,,0.00,Wunderground v.1.15,2013-08-27 09:30:00,
2013-08-27 05:35:00,59.8,59.2,30.14,SW,214,0.0,0.0,98,0.00,,,0.00,Wunderground v.1.15,2013-08-27 09:35:00,
2013-08-27 05:41:00,59.5,58.9,30.14,SW,214,0.0,0.0,98,0.00,,,0.00,Wunderground v.1.15,2013-08-27 09:41:00,
2013-08-27 05:46:00,59.3,58.7,30.14,SSW,213,0.0,0.0,98,0.00,,,0.00,Wunderground v.1.15,2013-08-27 09:46:00,
2013-08-27 05:51:00,59.3,58.7,30.14,SW,214,0.0,0.0,98,0.00,,,0.00,Wunderground v.1.15,2013-08-27 09:51:00,
2013-08-27 05:56:00,59.1,58.5,30.14,SW,214,0.0,0.0,98,0.00,,,0.00,Wunderground v.1.15,2013-08-27 09:56:00,
2013-08-27 06:02:00,59.1,58.5,30.14,SW,214,0.0,0.0,98,0.00,,,0.00,Wunderground v.1.15,2013-08-27 10:02:00,
2013-08-27 06:07:00,59.0,58.4,30.14,SW,214,0.0,0.0,98,0.00,,,0.00,Wunderground v.1.15,2013-08-27 10:07:00,
2013-08-27 06:12:00,58.9,58.3,30.14,SW,214,0.0,0.0,98,0.00,,,0.00,Wunderground v.1.15,2013-08-27 10:12:00,
2013-08-27 06:17:00,58.8,58.2,30.14,SW,214,0.0,0.0,98,0.00,,,0.00,Wunderground v.1.15,2013-08-27 10:17:00,
2013-08-27 06:23:00,58.7,58.1,30.15,SW,214,0.0,0.0,98,0.00,,,0.00,Wunderground v.1.15,2013-08-27 10:23:00,
2013-08-27 06:28:00,58.6,58.0,30.15,SW,214,0.0,0.0,98,0.00,,,0.00,Wunderground v.1.15,2013-08-27 10:28:00,
2013-08-27 06:33:00,58.7,58.1,30.15,SW,214,0.0,0.0,98,0.00,,,0.00,Wunderground v.1.15,2013-08-27 10:33:00,
2013-08-27 06:38:00,59.0,58.4,30.14,SW,214,0.0,0.0,98,0.00,,,0.00,Wunderground v.1.15,2013-08-27 10:38:00,
2013-08-27 06:43:00,58.8,58.2,30.15,SW,214,0.0,0.0,98,0.00,,,0.00,Wunderground v.1.15,2013-08-27 10:43:00,
2013-08-27 06:48:00,58.7,58.1,30.15,SW,214,0.0,0.0,98,0.00,,,0.00,Wunderground v.1.15,2013-08-27 10:48:00,
2013-08-27 06:53:00,58.8,58.2,30.15,SW,214,0.0,0.0,98,0.00,,,0.00,Wunderground v.1.15,2013-08-27 10:53:00,
2013-08-27 06:58:00,58.8,58.2,30.15,SW,214,0.0,0.0,98,0.00,,,0.00,Wunderground v.1.15,2013-08-27 10:58:00,
2013-08-27 07:03:00,58.8,58.2,30.15,SW,214,0.0,0.0,98,0.00,,,0.00,Wunderground v.1.15,2013-08-27 11:03:00,
2013-08-27 07:08:00,58.7,58.1,30.15,SW,214,0.0,0.0,98,0.00,,,0.00,Wunderground v.1.15,2013-08-27 11:08:00,
2013-08-27 07:14:00,58.5,57.9,30.15,SSW,213,0.0,0.0,98,0.00,,,0.00,Wunderground v.1.15,2013-08-27 11:14:00,
2013-08-27 07:19:00,58.6,58.0,30.15,SSW,213,0.0,0.0,98,0.00,,,0.00,Wunderground v.1.15,2013-08-27 11:19:00,
2013-08-27 07:24:00,58.6,58.0,30.15,SW,214,0.0,0.0,98,0.00,,,0.00,Wunderground v.1.15,2013-08-27 11:24:00,
2013-08-27 07:29:00,58.6,58.0,30.15,SW,214,0.0,0.0,98,0.00,,,0.00,Wunderground v.1.15,2013-08-27 11:29:00,
2013-08-27 07:34:00,58.6,58.0,30.15,SW,214,0.0,0.0,98,0.00,,,0.00,Wunderground v.1.15,2013-08-27 11:34:00,
2013-08-27 07:39:00,58.7,58.1,30.15,SW,214,0.0,0.0,98,0.00,,,0.00,Wunderground v.1.15,2013-08-27 11:39:00,
2013-08-27 07:44:00,58.8,58.2,30.15,SW,214,0.0,0.0,98,0.00,,,0.00,Wunderground v.1.15,2013-08-27 11:44:00,
2013-08-27 07:49:00,58.9,58.3,30.15,SSW,213,0.0,0.0,98,0.00,,,0.00,Wunderground v.1.15,2013-08-27 11:49:00,
2013-08-27 07:54:00,59.1,58.5,30.15,SW,214,0.0,0.0,98,0.00,,,0.00,Wunderground v.1.15,2013-08-27 11:54:00,
2013-08-27 07:59:00,59.3,58.7,30.15,SW,214,0.0,0.0,98,0.00,,,0.00,Wunderground v.1.15,2013-08-27 11:59:00,
2013-08-27 08:05:00,59.6,59.0,30.15,SW,214,0.0,0.0,98,0.00,,,0.00,Wunderground v.1.15,2013-08-27 12:05:00,
2013-08-27 08:10:00,60.0,59.4,30.14,SW,214,0.0,0.0,98,0.00,,,0.00,Wunderground v.1.15,2013-08-27 12:10:00,
2013-08-27 08:15:00,60.4,60.1,30.14,SW,214,0.0,0.0,99,0.00,,,0.00,Wunderground v.1.15,2013-08-27 12:15:00,
2013-08-27 08:20:00,60.7,60.4,30.14,SW,214,0.0,0.0,99,0.00,,,0.00,Wunderground v.1.15,2013-08-27 12:20:00,
2013-08-27 08:25:00,61.4,61.1,30.14,SW,214,0.0,0.0,99,0.00,,,0.00,Wunderground v.1.15,2013-08-27 12:25:00,
2013-08-27 08:30:00,62.0,61.7,30.15,SW,214,0.0,0.0,99,0.00,,,0.00,Wunderground v.1.15,2013-08-27 12:30:00,
2013-08-27 08:35:00,63.2,62.9,30.14,SW,214,0.0,0.0,99,0.00,,,0.00,Wunderground v.1.15,2013-08-27 12:35:00,
2013-08-27 08:40:00,64.6,64.3,30.14,SW,214,0.0,0.0,99,0.00,,,0.00,Wunderground v.1.15,2013-08-27 12:40:00,
2013-08-27 08:45:00,65.2,64.6,30.14,SSW,213,0.0,0.0,98,0.00,,,0.00,Wunderground v.1.15,2013-08-27 12:45:00,
2013-08-27 08:50:00,66.2,65.6,30.14,SW,214,0.0,0.0,98,0.00,,,0.00,Wunderground v.1.15,2013-08-27 12:50:00,
2013-08-27 08:56:00,67.3,66.7,30.14,SW,214,0.0,0.0,98,0.00,,,0.00,Wunderground v.1.15,2013-08-27 12:56:00,
2013-08-27 09:01:00,68.4,67.8,30.14,SW,214,0.0,0.0,98,0.00,,,0.00,Wunderground v.1.15,2013-08-27 13:01:00,
2013-08-27 09:06:00,68.3,67.7,30.14,SW,214,0.0,0.0,98,0.00,,,0.00,Wunderground v.1.15,2013-08-27 13:06:00,
2013-08-27 09:11:00,68.3,67.7,30.14,SW,214,0.0,0.0,98,0.00,,,0.00,Wunderground v.1.15,2013-08-27 13:11:00,
2013-08-27 09:16:00,68.8,68.2,30.14,SW,214,0.0,0.0,98,0.00,,,0.00,Wunderground v.1.15,2013-08-27 13:16:00,
2013-08-27 09:21:00,69.6,68.7,30.14,SW,214,0.0,0.0,97,0.00,,,0.00,Wunderground v.1.15,2013-08-27 13:21:00,
2013-08-27 09:26:00,70.4,69.2,30.14,SW,214,0.0,0.0,96,0.00,,,0.00,Wunderground v.1.15,2013-08-27 13:26:00,
2013-08-27 09:31:00,70.9,69.1,30.13,SW,214,0.0,0.0,94,0.00,,,0.00,Wunderground v.1.15,2013-08-27 13:31:00,
2013-08-27 09:36:00,71.4,69.6,30.13,SW,214,0.0,0.0,94,0.00,,,0.00,Wunderground v.1.15,2013-08-27 13:36:00,
2013-08-27 09:41:00,71.8,70.0,30.13,SW,214,0.0,0.0,94,0.00,,,0.00,Wunderground v.1.15,2013-08-27 13:41:00,
2013-08-27 09:47:00,72.3,70.2,30.14,SW,214,0.0,0.0,93,0.00,,,0.00,Wunderground v.1.15,2013-08-27 13:47:00,
2013-08-27 09:52:00,72.5,70.0,30.14,SSW,211,0.0,0.0,92,0.00,,,0.00,Wunderground v.1.15,2013-08-27 13:52:00,
2013-08-27 09:57:00,72.6,69.2,30.14,NNE,17,1.0,3.0,89,0.00,,,0.00,Wunderground v.1.15,2013-08-27 13:57:00,
2013-08-27 10:03:00,73.2,69.8,30.14,North,358,1.0,4.0,89,0.00,,,0.00,Wunderground v.1.15,2013-08-27 14:03:00,
2013-08-27 10:08:00,73.9,69.1,30.14,WNW,288,2.0,5.0,85,0.00,,,0.00,Wunderground v.1.15,2013-08-27 14:08:00,
2013-08-27 10:13:00,74.6,69.1,30.14,WNW,293,2.0,2.0,83,0.00,,,0.00,Wunderground v.1.15,2013-08-27 14:13:00,
2013-08-27 10:19:00,75.3,69.4,30.14,NW,314,2.0,3.0,82,0.00,,,0.00,Wunderground v.1.15,2013-08-27 14:19:00,
2013-08-27 10:24:00,75.7,69.5,30.14,NNE,13,2.0,3.0,81,0.00,,,0.00,Wunderground v.1.15,2013-08-27 14:24:00,
2013-08-27 10:29:00,76.3,69.7,30.13,NNW,344,2.0,3.0,80,0.00,,,0.00,Wunderground v.1.15,2013-08-27 14:29:00,
2013-08-27 10:34:00,76.9,69.9,30.13,NE,34,2.0,4.0,79,0.00,,,0.00,Wunderground v.1.15,2013-08-27 14:34:00,
2013-08-27 10:40:00,77.2,69.4,30.13,NNW,330,2.0,2.0,77,0.00,,,0.00,Wunderground v.1.15,2013-08-27 14:40:00,
2013-08-27 10:45:00,77.4,68.9,30.13,NE,36,2.0,7.0,75,0.00,,,0.00,Wunderground v.1.15,2013-08-27 14:45:00,
2013-08-27 10:50:00,77.4,68.5,30.13,WNW,296,2.0,3.0,74,0.00,,,0.00,Wunderground v.1.15,2013-08-27 14:50:00,
2013-08-27 10:55:00,77.5,68.2,30.13,NNW,327,3.0,5.0,73,0.00,,,0.00,Wunderground v.1.15,2013-08-27 14:55:00,
2013-08-27 11:00:00,77.7,68.4,30.13,NE,36,3.0,3.0,73,0.00,,,0.00,Wunderground v.1.15,2013-08-27 15:00:00,
2013-08-27 11:05:00,77.9,68.9,30.13,NE,43,2.0,3.0,74,0.00,,,0.00,Wunderground v.1.15,2013-08-27 15:05:00,
2013-08-27 11:10:00,78.0,68.6,30.13,NNE,13,2.0,3.0,73,0.00,,,0.00,Wunderground v.1.15,2013-08-27 15:10:00,
2013-08-27 11:15:00,78.0,68.2,30.13,West,277,3.0,3.0,72,0.00,,,0.00,Wunderground v.1.15,2013-08-27 15:15:00,
2013-08-27 11:20:00,78.5,68.3,30.13,North,5,2.0,3.0,71,0.00,,,0.00,Wunderground v.1.15,2013-08-27 15:20:00,
2013-08-27 11:25:00,78.9,69.1,30.13,WSW,255,1.0,3.0,72,0.00,,,0.00,Wunderground v.1.15,2013-08-27 15:25:00,
2013-08-27 11:30:00,79.4,69.2,30.13,North,5,1.0,1.0,71,0.00,,,0.00,Wunderground v.1.15,2013-08-27 15:30:00,
2013-08-27 11:35:00,80.0,70.6,30.13,NNW,347,1.0,2.0,73,0.00,,,0.00,Wunderground v.1.15,2013-08-27 15:35:00,
2013-08-27 11:40:00,80.0,69.3,30.13,NE,56,2.0,2.0,70,0.00,,,0.00,Wunderground v.1.15,2013-08-27 15:40:00,
2013-08-27 11:46:00,80.2,68.7,30.13,ENE,57,2.0,2.0,68,0.00,,,0.00,Wunderground v.1.15,2013-08-27 15:46:00,
2013-08-27 11:51:00,81.2,70.5,30.12,East,83,1.0,1.0,70,0.00,,,0.00,Wunderground v.1.15,2013-08-27 15:51:00,
2013-08-27 11:56:00,82.2,70.1,30.13,NNW,333,1.0,3.0,67,0.00,,,0.00,Wunderground v.1.15,2013-08-27 15:56:00,
2013-08-27 12:01:00,82.0,71.2,30.12,WNW,283,1.0,2.0,70,0.00,,,0.00,Wunderground v.1.15,2013-08-27 16:01:00,
2013-08-27 12:07:00,82.0,70.0,30.12,SW,228,1.0,2.0,67,0.00,,,0.00,Wunderground v.1.15,2013-08-27 16:07:00,
2013-08-27 12:12:00,82.7,69.7,30.12,NNE,25,0.0,1.0,65,0.00,,,0.00,Wunderground v.1.15,2013-08-27 16:12:00,
2013-08-27 12:17:00,82.8,69.4,30.12,West,277,1.0,2.0,64,0.00,,,0.00,Wunderground v.1.15,2013-08-27 16:17:00,
2013-08-27 12:22:00,83.0,68.2,30.12,North,6,2.0,4.0,61,0.00,,,0.00,Wunderground v.1.15,2013-08-27 16:22:00,
2013-08-27 12:27:00,82.8,66.5,30.12,North,8,2.0,4.0,58,0.00,,,0.00,Wunderground v.1.15,2013-08-27 16:27:00,
2013-08-27 12:32:00,83.2,68.3,30.12,SE,133,2.0,2.0,61,0.00,,,0.00,Wunderground v.1.15,2013-08-27 16:32:00,
2013-08-27 12:37:00,83.4,68.1,30.12,ESE,121,2.0,4.0,60,0.00,,,0.00,Wunderground v.1.15,2013-08-27 16:37:00,
2013-08-27 12:42:00,83.0,69.1,30.12,NE,51,2.0,2.0,63,0.00,,,0.00,Wunderground v.1.15,2013-08-27 16:42:00,
2013-08-27 12:48:00,83.2,67.4,30.11,West,269,2.0,3.0,59,0.00,,,0.00,Wunderground v.1.15,2013-08-27 16:48:00,
2013-08-27 12:53:00,83.7,67.8,30.11,NNW,337,2.0,2.0,59,0.00,,,0.00,Wunderground v.1.15,2013-08-27 16:53:00,
2013-08-27 12:58:00,83.7,67.8,30.11,North,11,1.0,2.0,59,0.00,,,0.00,Wunderground v.1.15,2013-08-27 16:58:00,
2013-08-27 13:03:00,83.7,67.8,30.10,WNW,285,1.0,3.0,59,0.00,,,0.00,Wunderground v.1.15,2013-08-27 17:03:00,
2013-08-27 13:09:00,84.1,69.2,30.10,NNW,328,2.0,3.0,61,0.00,,,0.00,Wunderground v.1.15,2013-08-27 17:09:00,
2013-08-27 13:15:00,83.7,68.3,30.10,WSW,256,2.0,4.0,60,0.00,,,0.00,Wunderground v.1.15,2013-08-27 17:15:00,
2013-08-27 13:20:00,83.9,65.5,30.10,NNE,27,2.0,3.0,54,0.00,,,0.00,Wunderground v.1.15,2013-08-27 17:20:00,
2013-08-27 13:25:00,84.4,68.0,30.10,West,259,1.0,3.0,58,0.00,,,0.00,Wunderground v.1.15,2013-08-27 17:25:00,
2013-08-27 13:30:00,85.0,69.1,30.10,SW,228,1.0,1.0,59,0.00,,,0.00,Wunderground v.1.15,2013-08-27 17:30:00,
2013-08-27 13:35:00,85.6,68.1,30.10,NE,50,1.0,2.0,56,0.00,,,0.00,Wunderground v.1.15,2013-08-27 17:35:00,
2013-08-27 13:40:00,85.0,67.5,30.10,West,264,2.0,2.0,56,0.00,,,0.00,Wunderground v.1.15,2013-08-27 17:40:00,
2013-08-27 13:45:00,85.6,69.1,30.10,WNW,298,1.0,2.0,58,0.00,,,0.00,Wunderground v.1.15,2013-08-27 17:45:00,
2013-08-27 13:50:00,85.9,67.3,30.10,WSW,248,0.0,0.0,54,0.00,,,0.00,Wunderground v.1.15,2013-08-27 17:50:00,
2013-08-27 13:55:00,85.9,67.3,30.09,ENE,65,1.0,2.0,54,0.00,,,0.00,Wunderground v.1.15,2013-08-27 17:55:00,
2013-08-27 14:01:00,86.1,69.1,30.09,ENE,77,1.0,2.0,57,0.00,,,0.00,Wunderground v.1.15,2013-08-27 18:01:00,
2013-08-27 14:06:00,86.1,66.4,30.09,SE,134,1.0,2.0,52,0.00,,,0.00,Wunderground v.1.15,2013-08-27 18:06:00,
2013-08-27 14:11:00,86.0,66.3,30.09,NW,317,2.0,3.0,52,0.00,,,0.00,Wunderground v.1.15,2013-08-27 18:11:00,
2013-08-27 14:16:00,85.3,66.8,30.09,SE,131,2.0,3.0,54,0.00,,,0.00,Wunderground v.1.15,2013-08-27 18:16:00,
2013-08-27 14:21:00,85.4,68.4,30.08,SSW,210,1.0,2.0,57,0.00,,,0.00,Wunderground v.1.15,2013-08-27 18:21:00,
2013-08-27 14:27:00,85.4,68.9,30.08,WNW,297,2.0,3.0,58,0.00,,,0.00,Wunderground v.1.15,2013-08-27 18:27:00,
2013-08-27 14:32:00,85.2,66.7,30.08,North,9,2.0,2.0,54,0.00,,,0.00,Wunderground v.1.15,2013-08-27 18:32:00,
2013-08-27 14:37:00,85.4,68.9,30.08,ENE,77,1.0,2.0,58,0.00,,,0.00,Wunderground v.1.15,2013-08-27 18:37:00,
2013-08-27 14:42:00,85.5,71.0,30.08,NNE,25,1.0,1.0,62,0.00,,,0.00,Wunderground v.1.15,2013-08-27 18:42:00,
2013-08-27 14:47:00,85.9,69.9,30.08,North,359,1.0,2.0,59,0.00,,,0.00,Wunderground v.1.15,2013-08-27 18:47:00,
2013-08-27 14:52:00,85.7,67.1,30.08,NNE,16,1.0,2.0,54,0.00,,,0.00,Wunderground v.1.15,2013-08-27 18:52:00,
2013-08-27 14:57:00,85.9,68.9,30.08,SE,127,1.0,2.0,57,0.00,,,0.00,Wunderground v.1.15,2013-08-27 18:57:00,
2013-08-27 15:03:00,85.8,67.8,30.07,NE,37,1.0,2.0,55,0.00,,,0.00,Wunderground v.1.15,2013-08-27 19:03:00,
2013-08-27 15:08:00,85.6,69.6,30.07,NE,37,1.0,2.0,59,0.00,,,0.00,Wunderground v.1.15,2013-08-27 19:08:00,
2013-08-27 15:13:00,85.1,72.5,30.07,NE,37,0.0,1.0,66,0.00,,,0.00,Wunderground v.1.15,2013-08-27 19:13:00,
2013-08-27 15:18:00,85.7,73.0,30.06,SE,138,0.0,2.0,66,0.00,,,0.00,Wunderground v.1.15,2013-08-27 19:18:00,
2013-08-27 15:23:00,86.4,68.8,30.06,ENE,74,1.0,3.0,56,0.00,,,0.00,Wunderground v.1.15,2013-08-27 19:23:00,
2013-08-27 15:28:00,86.1,70.1,30.06,WNW,294,2.0,5.0,59,0.00,,,0.00,Wunderground v.1.15,2013-08-27 19:28:00,
2013-08-27 15:33:00,85.7,71.7,30.06,WNW,285,2.0,2.0,63,0.00,,,0.00,Wunderground v.1.15,2013-08-27 19:33:00,
2013-08-27 15:38:00,85.7,67.7,30.06,NNE,28,2.0,3.0,55,0.00,,,0.00,Wunderground v.1.15,2013-08-27 19:38:00,
2013-08-27 15:44:00,85.9,67.9,30.06,SE,126,1.0,1.0,55,0.00,,,0.00,Wunderground v.1.15,2013-08-27 19:44:00,
2013-08-27 15:49:00,85.7,65.5,30.05,West,277,1.0,3.0,51,0.00,,,0.00,Wunderground v.1.15,2013-08-27 19:49:00,
2013-08-27 15:54:00,86.4,68.8,30.05,South,169,1.0,1.0,56,0.00,,,0.00,Wunderground v.1.15,2013-08-27 19:54:00,
2013-08-27 15:59:00,87.1,66.8,30.05,South,169,0.0,1.0,51,0.00,,,0.00,Wunderground v.1.15,2013-08-27 19:59:00,
2013-08-27 16:05:00,88.0,70.3,30.05,South,169,0.0,0.0,56,0.00,,,0.00,Wunderground v.1.15,2013-08-27 20:05:00,
2013-08-27 16:10:00,87.2,66.3,30.05,North,353,1.0,2.0,50,0.00,,,0.00,Wunderground v.1.15,2013-08-27 20:10:00,
2013-08-27 16:16:00,86.8,65.9,30.05,WNW,288,1.0,2.0,50,0.00,,,0.00,Wunderground v.1.15,2013-08-27 20:16:00,
2013-08-27 16:21:00,87.2,66.9,30.05,SW,217,1.0,1.0,51,0.00,,,0.00,Wunderground v.1.15,2013-08-27 20:21:00,
2013-08-27 16:26:00,88.0,67.6,30.05,ENE,77,1.0,2.0,51,0.00,,,0.00,Wunderground v.1.15,2013-08-27 20:26:00,
2013-08-27 16:31:00,88.0,68.7,30.05,WNW,297,1.0,6.0,53,0.00,,,0.00,Wunderground v.1.15,2013-08-27 20:31:00,
2013-08-27 16:36:00,87.2,68.5,30.05,NE,49,2.0,6.0,54,0.00,,,0.00,Wunderground v.1.15,2013-08-27 20:36:00,
2013-08-27 16:41:00,87.3,67.5,30.05,SSE,155,2.0,2.0,52,0.00,,,0.00,Wunderground v.1.15,2013-08-27 20:41:00,
2013-08-27 16:47:00,87.3,68.1,30.05,ENE,61,1.0,4.0,53,0.00,,,0.00,Wunderground v.1.15,2013-08-27 20:47:00,
2013-08-27 16:52:00,87.2,66.3,30.05,NNE,32,1.0,2.0,50,0.00,,,0.00,Wunderground v.1.15,2013-08-27 20:52:00,
2013-08-27 16:57:00,86.7,67.5,30.05,ENE,58,2.0,5.0,53,0.00,,,0.00,Wunderground v.1.15,2013-08-27 20:57:00,
2013-08-27 17:02:00,86.7,67.5,30.05,NNE,24,2.0,2.0,53,0.00,,,0.00,Wunderground v.1.15,2013-08-27 21:02:00,
2013-08-27 17:07:00,86.2,65.9,30.04,NNE,19,2.0,5.0,51,0.00,,,0.00,Wunderground v.1.15,2013-08-27 21:07:00,
2013-08-27 17:12:00,86.2,65.4,30.04,ESE,115,2.0,3.0,50,0.00,,,0.00,Wunderground v.1.15,2013-08-27 21:12:00,
2013-08-27 17:18:00,86.2,66.5,30.04,ESE,111,1.0,3.0,52,0.00,,,0.00,Wunderground v.1.15,2013-08-27 21:18:00,
2013-08-27 17:23:00,86.6,65.7,30.04,NE,55,1.0,2.0,50,0.00,,,0.00,Wunderground v.1.15,2013-08-27 21:23:00,
2013-08-27 17:28:00,86.5,68.4,30.04,West,276,1.0,3.0,55,0.00,,,0.00,Wunderground v.1.15,2013-08-27 21:28:00,
2013-08-27 17:34:00,86.5,69.5,30.03,SSW,211,1.0,2.0,57,0.00,,,0.00,Wunderground v.1.15,2013-08-27 21:34:00,
2013-08-27 17:39:00,86.6,68.5,30.04,ENE,70,1.0,3.0,55,0.00,,,0.00,Wunderground v.1.15,2013-08-27 21:39:00,
2013-08-27 17:44:00,86.3,68.2,30.04,South,190,1.0,2.0,55,0.00,,,0.00,Wunderground v.1.15,2013-08-27 21:44:00,
2013-08-27 17:49:00,85.6,70.6,30.04,SSW,208,1.0,2.0,61,0.00,,,0.00,Wunderground v.1.15,2013-08-27 21:49:00,
2013-08-27 17:54:00,84.7,70.2,30.04,SSW,207,1.0,1.0,62,0.00,,,0.00,Wunderground v.1.15,2013-08-27 21:54:00,
2013-08-27 18:00:00,84.5,69.6,30.04,SSW,207,1.0,1.0,61,0.00,,,0.00,Wunderground v.1.15,2013-08-27 22:00:00,
2013-08-27 18:05:00,84.6,70.1,30.04,SSW,204,1.0,1.0,62,0.00,,,0.00,Wunderground v.1.15,2013-08-27 22:05:00,
2013-08-27 18:10:00,84.9,69.9,30.04,SSW,203,1.0,1.0,61,0.00,,,0.00,Wunderground v.1.15,2013-08-27 22:10:00,
2013-08-27 18:15:00,85.0,69.6,30.04,SSW,201,1.0,1.0,60,0.00,,,0.00,Wunderground v.1.15,2013-08-27 22:15:00,
2013-08-27 18:20:00,84.7,69.3,30.04,SSW,204,1.0,1.0,60,0.00,,,0.00,Wunderground v.1.15,2013-08-27 22:20:00,
2013-08-27 18:25:00,83.7,69.8,30.04,SSE,153,1.0,1.0,63,0.00,,,0.00,Wunderground v.1.15,2013-08-27 22:25:00,
2013-08-27 18:30:00,83.4,69.9,30.04,SSE,152,1.0,1.0,64,0.00,,,0.00,Wunderground v.1.15,2013-08-27 22:30:00,
2013-08-27 18:35:00,83.2,69.8,30.04,SSE,152,1.0,1.0,64,0.00,,,0.00,Wunderground v.1.15,2013-08-27 22:35:00,
2013-08-27 18:40:00,83.2,69.8,30.04,SSE,152,1.0,1.0,64,0.00,,,0.00,Wunderground v.1.15,2013-08-27 22:40:00,
2013-08-27 18:46:00,83.2,70.2,30.04,SSE,152,1.0,1.0,65,0.00,,,0.00,Wunderground v.1.15,2013-08-27 22:46:00,
2013-08-27 18:51:00,83.1,70.6,30.04,SSE,152,1.0,1.0,66,0.00,,,0.00,Wunderground v.1.15,2013-08-27 22:51:00,
2013-08-27 18:56:00,82.9,70.8,30.04,SSE,152,1.0,1.0,67,0.00,,,0.00,Wunderground v.1.15,2013-08-27 22:56:00,
2013-08-27 19:01:00,82.6,70.5,30.04,SSE,152,1.0,1.0,67,0.00,,,0.00,Wunderground v.1.15,2013-08-27 23:01:00,
2013-08-27 19:07:00,81.6,70.0,30.04,SSE,152,1.0,1.0,68,0.00,,,0.00,Wunderground v.1.15,2013-08-27 23:07:00,
2013-08-27 19:13:00,81.4,70.7,30.04,SSE,152,1.0,1.0,70,0.00,,,0.00,Wunderground v.1.15,2013-08-27 23:13:00,
2013-08-27 19:18:00,80.8,70.5,30.04,SSE,152,1.0,1.0,71,0.00,,,0.00,Wunderground v.1.15,2013-08-27 23:18:00,
2013-08-27 19:23:00,80.2,70.8,30.04,SSE,152,1.0,1.0,73,0.00,,,0.00,Wunderground v.1.15,2013-08-27 23:23:00,
2013-08-27 19:28:00,79.4,70.4,30.04,SSE,152,1.0,1.0,74,0.00,,,0.00,Wunderground v.1.15,2013-08-27 23:28:00,
2013-08-27 19:33:00,78.8,70.6,30.04,SSE,152,0.0,1.0,76,0.00,,,0.00,Wunderground v.1.15,2013-08-27 23:33:00,
2013-08-27 19:38:00,78.2,70.8,30.04,SSE,152,0.0,1.0,78,0.00,,,0.00,Wunderground v.1.15,2013-08-27 23:38:00,
2013-08-27 19:43:00,77.5,70.1,30.04,SSE,152,0.0,0.0,78,0.00,,,0.00,Wunderground v.1.15,2013-08-27 23:43:00,
2013-08-27 19:49:00,76.7,69.3,30.04,SSE,152,0.0,0.0,78,0.00,,,0.00,Wunderground v.1.15,2013-08-27 23:49:00,
2013-08-27 19:54:00,76.1,69.1,30.04,SSE,152,0.0,0.0,79,0.00,,,0.00,Wunderground v.1.15,2013-08-27 23:54:00,
2013-08-27 19:59:00,75.6,69.7,30.04,SSE,152,0.0,0.0,82,0.00,,,0.00,Wunderground v.1.15,2013-08-27 23:59:00,
2013-08-27 20:05:00,74.6,69.1,30.04,SSE,152,0.0,0.0,83,0.00,,,0.00,Wunderground v.1.15,2013-08-28 00:05:00,
2013-08-27 20:10:00,73.9,69.1,30.04,SSE,152,0.0,0.0,85,0.00,,,0.00,Wunderground v.1.15,2013-08-28 00:10:00,
2013-08-27 20:15:00,73.4,68.6,30.04,SSE,152,0.0,0.0,85,0.00,,,0.00,Wunderground v.1.15,2013-08-28 00:15:00,
2013-08-27 20:20:00,73.0,68.6,30.04,SSE,152,0.0,0.0,86,0.00,,,0.00,Wunderground v.1.15,2013-08-28 00:20:00,
2013-08-27 20:25:00,72.6,68.5,30.05,SSE,153,0.0,0.0,87,0.00,,,0.00,Wunderground v.1.15,2013-08-28 00:25:00,
2013-08-27 20:31:00,72.2,68.4,30.05,SSE,152,0.0,0.0,88,0.00,,,0.00,Wunderground v.1.15,2013-08-28 00:31:00,
2013-08-27 20:36:00,72.0,68.2,30.05,SSE,152,0.0,0.0,88,0.00,,,0.00,Wunderground v.1.15,2013-08-28 00:36:00,
2013-08-27 20:41:00,71.7,68.3,30.04,SSE,152,0.0,0.0,89,0.00,,,0.00,Wunderground v.1.15,2013-08-28 00:41:00,
2013-08-27 20:46:00,71.5,68.4,30.05,SSE,152,0.0,0.0,90,0.00,,,0.00,Wunderground v.1.15,2013-08-28 00:46:00,
2013-08-27 20:51:00,71.2,68.1,30.04,SSE,152,0.0,0.0,90,0.00,,,0.00,Wunderground v.1.15,2013-08-28 00:51:00,
2013-08-27 20:56:00,71.0,68.2,30.04,SSE,152,0.0,0.0,91,0.00,,,0.00,Wunderground v.1.15,2013-08-28 00:56:00,
2013-08-27 21:01:00,70.8,68.0,30.04,SSE,152,0.0,0.0,91,0.00,,,0.00,Wunderground v.1.15,2013-08-28 01:01:00,
2013-08-27 21:07:00,70.5,67.7,30.05,SSE,152,0.0,0.0,91,0.00,,,0.00,Wunderground v.1.15,2013-08-28 01:07:00,
2013-08-27 21:12:00,70.3,67.5,30.05,SSE,153,0.0,0.0,91,0.00,,,0.00,Wunderground v.1.15,2013-08-28 01:12:00,
2013-08-27 21:17:00,70.2,67.8,30.05,SSE,152,0.0,0.0,92,0.00,,,0.00,Wunderground v.1.15,2013-08-28 01:17:00,
2013-08-27 21:22:00,70.1,67.7,30.05,SSE,152,0.0,0.0,92,0.00,,,0.00,Wunderground v.1.15,2013-08-28 01:22:00,
2013-08-27 21:27:00,69.9,67.5,30.05,SSE,152,0.0,0.0,92,0.00,,,0.00,Wunderground v.1.15,2013-08-28 01:27:00,
2013-08-27 21:33:00,69.8,67.7,30.06,SSE,153,0.0,0.0,93,0.00,,,0.00,Wunderground v.1.15,2013-08-28 01:33:00,
2013-08-27 21:39:00,69.7,67.6,30.06,SSE,153,0.0,0.0,93,0.00,,,0.00,Wunderground v.1.15,2013-08-28 01:39:00,
2013-08-27 21:45:00,69.6,67.8,30.06,SSE,152,0.0,0.0,94,0.00,,,0.00,Wunderground v.1.15,2013-08-28 01:45:00,
2013-08-27 21:50:00,69.6,67.8,30.06,SSE,152,0.0,0.0,94,0.00,,,0.00,Wunderground v.1.15,2013-08-28 01:50:00,
2013-08-27 21:55:00,69.4,67.6,30.06,SSE,152,0.0,0.0,94,0.00,,,0.00,Wunderground v.1.15,2013-08-28 01:55:00,
2013-08-27 22:00:00,69.2,67.4,30.06,SSE,152,0.0,0.0,94,0.00,,,0.00,Wunderground v.1.15,2013-08-28 02:00:00,
2013-08-27 22:06:00,69.1,67.6,30.06,SSE,152,0.0,0.0,95,0.00,,,0.00,Wunderground v.1.15,2013-08-28 02:06:00,
2013-08-27 22:11:00,69.0,67.5,30.06,SSE,152,0.0,0.0,95,0.00,,,0.00,Wunderground v.1.15,2013-08-28 02:11:00,
2013-08-27 22:16:00,69.1,67.6,30.06,SSE,152,0.0,0.0,95,0.00,,,0.00,Wunderground v.1.15,2013-08-28 02:16:00,
2013-08-27 22:22:00,69.1,67.6,30.07,SSE,152,0.0,0.0,95,0.00,,,0.00,Wunderground v.1.15,2013-08-28 02:22:00,
2013-08-27 22:27:00,69.1,67.9,30.07,SSE,152,0.0,0.0,96,0.00,,,0.00,Wunderground v.1.15,2013-08-28 02:27:00,
2013-08-27 22:32:00,69.0,67.8,30.07,SSE,152,0.0,0.0,96,0.00,,,0.00,Wunderground v.1.15,2013-08-28 02:32:00,
2013-08-27 22:37:00,68.8,67.6,30.07,SSE,152,0.0,0.0,96,0.00,,,0.00,Wunderground v.1.15,2013-08-28 02:37:00,
2013-08-27 22:42:00,68.6,67.4,30.07,SSE,152,0.0,0.0,96,0.00,,,0.00,Wunderground v.1.15,2013-08-28 02:42:00,
2013-08-27 22:48:00,69.0,67.8,30.07,SSE,152,0.0,0.0,96,0.00,,,0.00,Wunderground v.1.15,2013-08-28 02:48:00,
2013-08-27 22:54:00,69.0,67.8,30.07,SSE,152,0.0,1.0,96,0.00,,,0.00,Wunderground v.1.15,2013-08-28 02:54:00,
2013-08-27 23:00:00,68.6,67.4,30.07,SSE,151,0.0,0.0,96,0.00,,,0.00,Wunderground v.1.15,2013-08-28 03:00:00,
2013-08-27 23:05:00,68.6,67.4,30.07,SSE,152,0.0,1.0,96,0.00,,,0.00,Wunderground v.1.15,2013-08-28 03:05:00,
2013-08-27 23:10:00,68.6,67.4,30.07,SSE,152,0.0,0.0,96,0.00,,,0.00,Wunderground v.1.15,2013-08-28 03:10:00,
2013-08-27 23:15:00,68.3,67.1,30.07,SSE,150,0.0,0.0,96,0.00,,,0.00,Wunderground v.1.15,2013-08-28 03:15:00,
2013-08-27 23:21:00,68.1,66.9,30.07,SSE,151,0.0,0.0,96,0.00,,,0.00,Wunderground v.1.15,2013-08-28 03:21:00,
2013-08-27 23:26:00,68.0,66.8,30.07,SSE,151,0.0,0.0,96,0.00,,,0.00,Wunderground v.1.15,2013-08-28 03:26:00,
2013-08-27 23:31:00,67.9,66.7,30.06,SSE,150,0.0,0.0,96,0.00,,,0.00,Wunderground v.1.15,2013-08-28 03:31:00,
2013-08-27 23:36:00,67.8,66.9,30.07,SSE,150,0.0,0.0,97,0.00,,,0.00,Wunderground v.1.15,2013-08-28 03:36:00,
2013-08-27 23:41:00,67.9,67.0,30.07,SSE,151,0.0,0.0,97,0.00,,,0.00,Wunderground v.1.15,2013-08-28 03:41:00,
2013-08-27 23:47:00,67.7,66.8,30.07,SSE,152,0.0,0.0,97,0.00,,,0.00,Wunderground v.1.15,2013-08-28 03:47:00,
2013-08-27 23:52:00,67.5,66.6,30.07,SSE,151,0.0,0.0,97,0.00,,,0.00,Wunderground v.1.15,2013-08-28 03:52:00,
2013-08-27 23:57:00,67.3,66.4,30.07,SSE,150,0.0,0.0,97,0.00,,,0.00,Wunderground v.1.15,2013-08-28 03:57:00,